sensor_id;sensor_type;location;lat;lon;timestamp;temperature;humidity
3418;DHT22;1722;51.316;12.370;2022-12-18T00:00:49;-3.20;91.20
3418;DHT22;1722;51.316;12.370;2022-12-18T00:03:17;-3.20;91.20
3418;DHT22;1722;51.316;12.370;2022-12-18T00:05:47;-3.20;91.30
3418;DHT22;1722;51.316;12.370;2022-12-18T00:08:15;-3.30;91.20
3418;DHT22;1722;51.316;12.370;2022-12-18T00:10:45;-3.30;91.30
3418;DHT22;1722;51.316;12.370;2022-12-18T00:13:13;-3.30;91.30
3418;DHT22;1722;51.316;12.370;2022-12-18T00:15:40;-3.30;91.20
3418;DHT22;1722;51.316;12.370;2022-12-18T00:18:08;-3.30;91.20
3418;DHT22;1722;51.316;12.370;2022-12-18T00:20:39;-3.30;91.20
3418;DHT22;1722;51.316;12.370;2022-12-18T00:23:06;-3.30;91.10
3418;DHT22;1722;51.316;12.370;2022-12-18T00:25:34;-3.30;91.20
3418;DHT22;1722;51.316;12.370;2022-12-18T00:28:03;-3.30;91.10
3418;DHT22;1722;51.316;12.370;2022-12-18T00:30:31;-3.30;91.10
3418;DHT22;1722;51.316;12.370;2022-12-18T00:32:58;-3.40;91.00
3418;DHT22;1722;51.316;12.370;2022-12-18T00:35:26;-3.40;91.00
3418;DHT22;1722;51.316;12.370;2022-12-18T00:37:53;-3.40;91.00
3418;DHT22;1722;51.316;12.370;2022-12-18T00:40:21;-3.40;91.00
3418;DHT22;1722;51.316;12.370;2022-12-18T00:42:48;-3.40;90.90
3418;DHT22;1722;51.316;12.370;2022-12-18T00:45:26;-3.50;90.90
3418;DHT22;1722;51.316;12.370;2022-12-18T00:47:55;-3.50;91.00
3418;DHT22;1722;51.316;12.370;2022-12-18T00:50:24;-3.50;91.00
3418;DHT22;1722;51.316;12.370;2022-12-18T00:52:51;-3.50;91.10
3418;DHT22;1722;51.316;12.370;2022-12-18T00:55:19;-3.50;91.20
3418;DHT22;1722;51.316;12.370;2022-12-18T00:57:46;-3.50;91.10
3418;DHT22;1722;51.316;12.370;2022-12-18T01:00:15;-3.50;91.10
3418;DHT22;1722;51.316;12.370;2022-12-18T01:02:44;-3.50;91.10
3418;DHT22;1722;51.316;12.370;2022-12-18T01:05:13;-3.60;91.00
3418;DHT22;1722;51.316;12.370;2022-12-18T01:07:40;-3.50;91.10
3418;DHT22;1722;51.316;12.370;2022-12-18T01:10:10;-3.60;91.00
3418;DHT22;1722;51.316;12.370;2022-12-18T01:12:38;-3.60;91.00
3418;DHT22;1722;51.316;12.370;2022-12-18T01:15:07;-3.60;91.00
3418;DHT22;1722;51.316;12.370;2022-12-18T01:17:35;-3.60;91.10
3418;DHT22;1722;51.316;12.370;2022-12-18T01:20:05;-3.60;91.10
3418;DHT22;1722;51.316;12.370;2022-12-18T01:22:33;-3.60;91.10
3418;DHT22;1722;51.316;12.370;2022-12-18T01:25:00;-3.70;91.10
3418;DHT22;1722;51.316;12.370;2022-12-18T01:27:28;-3.60;91.00
3418;DHT22;1722;51.316;12.370;2022-12-18T01:29:56;-3.70;91.10
3418;DHT22;1722;51.316;12.370;2022-12-18T01:32:23;-3.70;91.00
3418;DHT22;1722;51.316;12.370;2022-12-18T01:34:51;-3.70;91.00
3418;DHT22;1722;51.316;12.370;2022-12-18T01:37:20;-3.70;91.10
3418;DHT22;1722;51.316;12.370;2022-12-18T01:39:47;-3.70;91.10
3418;DHT22;1722;51.316;12.370;2022-12-18T01:42:17;-3.70;91.00
3418;DHT22;1722;51.316;12.370;2022-12-18T01:45:03;-3.70;91.10
3418;DHT22;1722;51.316;12.370;2022-12-18T01:47:35;-3.70;91.10
3418;DHT22;1722;51.316;12.370;2022-12-18T01:50:08;-3.70;91.00
3418;DHT22;1722;51.316;12.370;2022-12-18T01:52:38;-3.80;90.90
3418;DHT22;1722;51.316;12.370;2022-12-18T01:55:08;-3.80;90.90
3418;DHT22;1722;51.316;12.370;2022-12-18T01:57:37;-3.80;90.90
3418;DHT22;1722;51.316;12.370;2022-12-18T02:00:08;-3.90;91.10
3418;DHT22;1722;51.316;12.370;2022-12-18T02:02:36;-3.90;91.00
3418;DHT22;1722;51.316;12.370;2022-12-18T02:05:04;-3.90;91.10
3418;DHT22;1722;51.316;12.370;2022-12-18T02:07:42;-3.90;91.10
3418;DHT22;1722;51.316;12.370;2022-12-18T02:10:18;-3.90;91.10
3418;DHT22;1722;51.316;12.370;2022-12-18T02:12:50;-3.90;91.00
3418;DHT22;1722;51.316;12.370;2022-12-18T02:15:25;-3.90;91.00
3418;DHT22;1722;51.316;12.370;2022-12-18T02:17:58;-3.90;91.00
3418;DHT22;1722;51.316;12.370;2022-12-18T02:20:32;-3.90;91.00
3418;DHT22;1722;51.316;12.370;2022-12-18T02:23:13;-3.90;91.00
3418;DHT22;1722;51.316;12.370;2022-12-18T02:26:00;-3.90;90.90
3418;DHT22;1722;51.316;12.370;2022-12-18T02:28:32;-3.90;90.80
3418;DHT22;1722;51.316;12.370;2022-12-18T02:31:03;-3.90;90.80
3418;DHT22;1722;51.316;12.370;2022-12-18T02:33:33;-3.90;90.70
3418;DHT22;1722;51.316;12.370;2022-12-18T02:36:02;-3.90;90.70
3418;DHT22;1722;51.316;12.370;2022-12-18T02:38:30;-4.00;90.70
3418;DHT22;1722;51.316;12.370;2022-12-18T02:41:00;-3.90;90.70
3418;DHT22;1722;51.316;12.370;2022-12-18T02:43:29;-4.00;90.60
3418;DHT22;1722;51.316;12.370;2022-12-18T02:45:58;-4.00;90.60
3418;DHT22;1722;51.316;12.370;2022-12-18T02:48:29;-4.00;90.90
3418;DHT22;1722;51.316;12.370;2022-12-18T02:51:02;-4.10;90.70
3418;DHT22;1722;51.316;12.370;2022-12-18T02:53:36;-4.10;90.70
3418;DHT22;1722;51.316;12.370;2022-12-18T02:56:11;-4.10;90.70
3418;DHT22;1722;51.316;12.370;2022-12-18T02:58:46;-4.00;90.70
3418;DHT22;1722;51.316;12.370;2022-12-18T03:01:21;-4.10;90.50
3418;DHT22;1722;51.316;12.370;2022-12-18T03:03:54;-4.20;90.60
3418;DHT22;1722;51.316;12.370;2022-12-18T03:06:26;-4.10;90.70
3418;DHT22;1722;51.316;12.370;2022-12-18T03:08:58;-4.10;90.70
3418;DHT22;1722;51.316;12.370;2022-12-18T03:11:30;-4.10;90.70
3418;DHT22;1722;51.316;12.370;2022-12-18T03:14:19;-4.10;90.60
3418;DHT22;1722;51.316;12.370;2022-12-18T03:16:50;-4.10;90.50
3418;DHT22;1722;51.316;12.370;2022-12-18T03:19:22;-4.10;90.50
3418;DHT22;1722;51.316;12.370;2022-12-18T03:21:54;-4.10;90.50
3418;DHT22;1722;51.316;12.370;2022-12-18T03:24:23;-4.10;90.50
3418;DHT22;1722;51.316;12.370;2022-12-18T03:26:54;-4.20;90.50
3418;DHT22;1722;51.316;12.370;2022-12-18T03:29:27;-4.10;90.50
3418;DHT22;1722;51.316;12.370;2022-12-18T03:31:59;-4.10;90.50
3418;DHT22;1722;51.316;12.370;2022-12-18T03:34:30;-4.20;90.50
3418;DHT22;1722;51.316;12.370;2022-12-18T03:36:59;-4.10;90.70
3418;DHT22;1722;51.316;12.370;2022-12-18T03:39:28;-4.10;90.50
3418;DHT22;1722;51.316;12.370;2022-12-18T03:42:00;-4.20;90.50
3418;DHT22;1722;51.316;12.370;2022-12-18T03:44:35;-4.20;90.50
3418;DHT22;1722;51.316;12.370;2022-12-18T03:47:07;-4.20;90.40
3418;DHT22;1722;51.316;12.370;2022-12-18T03:49:38;-4.20;90.40
3418;DHT22;1722;51.316;12.370;2022-12-18T03:52:11;-4.20;90.40
3418;DHT22;1722;51.316;12.370;2022-12-18T03:54:42;-4.20;90.40
3418;DHT22;1722;51.316;12.370;2022-12-18T03:57:14;-4.20;90.40
3418;DHT22;1722;51.316;12.370;2022-12-18T03:59:43;-4.20;90.50
3418;DHT22;1722;51.316;12.370;2022-12-18T04:02:13;-4.30;90.50
3418;DHT22;1722;51.316;12.370;2022-12-18T04:04:43;-4.20;90.50
3418;DHT22;1722;51.316;12.370;2022-12-18T04:07:12;-4.30;90.50
3418;DHT22;1722;51.316;12.370;2022-12-18T04:09:41;-4.20;90.50
3418;DHT22;1722;51.316;12.370;2022-12-18T04:12:12;-4.20;90.50
3418;DHT22;1722;51.316;12.370;2022-12-18T04:14:39;-4.20;90.40
3418;DHT22;1722;51.316;12.370;2022-12-18T04:17:07;-4.20;90.50
3418;DHT22;1722;51.316;12.370;2022-12-18T04:19:35;-4.20;90.50
3418;DHT22;1722;51.316;12.370;2022-12-18T04:22:02;-4.20;90.40
3418;DHT22;1722;51.316;12.370;2022-12-18T04:24:30;-4.20;90.40
3418;DHT22;1722;51.316;12.370;2022-12-18T04:26:57;-4.30;90.40
3418;DHT22;1722;51.316;12.370;2022-12-18T04:29:26;-4.30;90.40
3418;DHT22;1722;51.316;12.370;2022-12-18T04:31:54;-4.30;90.40
3418;DHT22;1722;51.316;12.370;2022-12-18T04:34:21;-4.30;90.50
3418;DHT22;1722;51.316;12.370;2022-12-18T04:36:49;-4.30;90.80
3418;DHT22;1722;51.316;12.370;2022-12-18T04:39:17;-4.30;90.50
3418;DHT22;1722;51.316;12.370;2022-12-18T04:41:44;-4.30;90.50
3418;DHT22;1722;51.316;12.370;2022-12-18T04:44:12;-4.40;90.50
3418;DHT22;1722;51.316;12.370;2022-12-18T04:46:41;-4.40;90.50
3418;DHT22;1722;51.316;12.370;2022-12-18T04:49:08;-4.40;90.50
3418;DHT22;1722;51.316;12.370;2022-12-18T04:51:37;-4.40;90.50
3418;DHT22;1722;51.316;12.370;2022-12-18T04:54:04;-4.40;90.50
3418;DHT22;1722;51.316;12.370;2022-12-18T04:56:32;-4.40;90.50
3418;DHT22;1722;51.316;12.370;2022-12-18T04:58:59;-4.40;90.50
3418;DHT22;1722;51.316;12.370;2022-12-18T05:01:27;-4.40;90.50
3418;DHT22;1722;51.316;12.370;2022-12-18T05:03:56;-4.40;90.60
3418;DHT22;1722;51.316;12.370;2022-12-18T05:06:23;-4.40;90.50
3418;DHT22;1722;51.316;12.370;2022-12-18T05:08:51;-4.40;90.50
3418;DHT22;1722;51.316;12.370;2022-12-18T05:11:18;-4.40;90.80
3418;DHT22;1722;51.316;12.370;2022-12-18T05:13:46;-4.40;90.60
3418;DHT22;1722;51.316;12.370;2022-12-18T05:16:14;-4.40;90.60
3418;DHT22;1722;51.316;12.370;2022-12-18T05:18:42;-4.40;90.60
3418;DHT22;1722;51.316;12.370;2022-12-18T05:21:11;-4.40;90.50
3418;DHT22;1722;51.316;12.370;2022-12-18T05:23:38;-4.40;90.50
3418;DHT22;1722;51.316;12.370;2022-12-18T05:26:06;-4.50;90.60
3418;DHT22;1722;51.316;12.370;2022-12-18T05:28:35;-4.50;90.60
3418;DHT22;1722;51.316;12.370;2022-12-18T05:31:03;-4.50;90.60
3418;DHT22;1722;51.316;12.370;2022-12-18T05:33:32;-4.50;90.70
3418;DHT22;1722;51.316;12.370;2022-12-18T05:36:01;-4.50;90.60
3418;DHT22;1722;51.316;12.370;2022-12-18T05:38:32;-4.50;90.60
3418;DHT22;1722;51.316;12.370;2022-12-18T05:40:59;-4.60;90.70
3418;DHT22;1722;51.316;12.370;2022-12-18T05:43:27;-4.60;90.80
3418;DHT22;1722;51.316;12.370;2022-12-18T05:45:55;-4.70;90.80
3418;DHT22;1722;51.316;12.370;2022-12-18T05:48:24;-4.80;91.00
3418;DHT22;1722;51.316;12.370;2022-12-18T05:50:51;-4.70;91.00
3418;DHT22;1722;51.316;12.370;2022-12-18T05:53:20;-4.70;91.20
3418;DHT22;1722;51.316;12.370;2022-12-18T05:55:49;-4.70;90.80
3418;DHT22;1722;51.316;12.370;2022-12-18T05:58:16;-4.70;90.80
3418;DHT22;1722;51.316;12.370;2022-12-18T06:00:45;-4.60;90.80
3418;DHT22;1722;51.316;12.370;2022-12-18T06:03:13;-4.60;90.90
3418;DHT22;1722;51.316;12.370;2022-12-18T06:05:42;-4.60;90.50
3418;DHT22;1722;51.316;12.370;2022-12-18T06:08:11;-4.60;90.50
3418;DHT22;1722;51.316;12.370;2022-12-18T06:10:39;-4.50;90.60
3418;DHT22;1722;51.316;12.370;2022-12-18T06:13:08;-4.70;90.50
3418;DHT22;1722;51.316;12.370;2022-12-18T06:15:36;-4.80;90.90
3418;DHT22;1722;51.316;12.370;2022-12-18T06:18:04;-4.80;91.00
3418;DHT22;1722;51.316;12.370;2022-12-18T06:20:31;-4.70;91.00
3418;DHT22;1722;51.316;12.370;2022-12-18T06:22:59;-4.70;90.90
3418;DHT22;1722;51.316;12.370;2022-12-18T06:25:27;-4.60;90.80
3418;DHT22;1722;51.316;12.370;2022-12-18T06:27:54;-4.60;90.60
3418;DHT22;1722;51.316;12.370;2022-12-18T06:30:23;-4.60;90.70
3418;DHT22;1722;51.316;12.370;2022-12-18T06:32:51;-4.60;90.60
3418;DHT22;1722;51.316;12.370;2022-12-18T06:35:18;-4.60;90.70
3418;DHT22;1722;51.316;12.370;2022-12-18T06:37:46;-4.60;90.60
3418;DHT22;1722;51.316;12.370;2022-12-18T06:40:14;-4.60;90.50
3418;DHT22;1722;51.316;12.370;2022-12-18T06:42:41;-4.60;90.60
3418;DHT22;1722;51.316;12.370;2022-12-18T06:45:09;-4.60;90.60
3418;DHT22;1722;51.316;12.370;2022-12-18T06:47:38;-4.60;90.50
3418;DHT22;1722;51.316;12.370;2022-12-18T06:50:07;-4.60;90.80
3418;DHT22;1722;51.316;12.370;2022-12-18T06:52:34;-4.60;90.50
3418;DHT22;1722;51.316;12.370;2022-12-18T06:55:03;-4.50;90.40
3418;DHT22;1722;51.316;12.370;2022-12-18T06:57:31;-4.60;90.50
3418;DHT22;1722;51.316;12.370;2022-12-18T06:59:59;-4.60;90.50
3418;DHT22;1722;51.316;12.370;2022-12-18T07:02:27;-4.60;90.50
3418;DHT22;1722;51.316;12.370;2022-12-18T07:04:55;-4.60;90.50
3418;DHT22;1722;51.316;12.370;2022-12-18T07:07:23;-4.60;90.40
3418;DHT22;1722;51.316;12.370;2022-12-18T07:09:51;-4.60;90.50
3418;DHT22;1722;51.316;12.370;2022-12-18T07:12:18;-4.60;90.70
3418;DHT22;1722;51.316;12.370;2022-12-18T07:14:46;-4.60;90.50
3418;DHT22;1722;51.316;12.370;2022-12-18T07:17:13;-4.60;90.60
3418;DHT22;1722;51.316;12.370;2022-12-18T07:19:41;-4.60;90.50
3418;DHT22;1722;51.316;12.370;2022-12-18T07:22:10;-4.60;90.40
3418;DHT22;1722;51.316;12.370;2022-12-18T07:24:37;-4.60;90.30
3418;DHT22;1722;51.316;12.370;2022-12-18T07:27:05;-4.50;90.40
3418;DHT22;1722;51.316;12.370;2022-12-18T07:29:32;-4.60;90.30
3418;DHT22;1722;51.316;12.370;2022-12-18T07:31:59;-4.60;90.30
3418;DHT22;1722;51.316;12.370;2022-12-18T07:34:27;-4.60;90.30
3418;DHT22;1722;51.316;12.370;2022-12-18T07:36:55;-4.60;90.40
3418;DHT22;1722;51.316;12.370;2022-12-18T07:39:24;-4.60;90.40
3418;DHT22;1722;51.316;12.370;2022-12-18T07:41:51;-4.60;90.60
3418;DHT22;1722;51.316;12.370;2022-12-18T07:44:32;-4.60;90.30
3418;DHT22;1722;51.316;12.370;2022-12-18T07:47:00;-4.50;90.40
3418;DHT22;1722;51.316;12.370;2022-12-18T07:49:27;-4.50;90.40
3418;DHT22;1722;51.316;12.370;2022-12-18T07:51:55;-4.50;90.30
3418;DHT22;1722;51.316;12.370;2022-12-18T07:54:24;-4.50;90.30
3418;DHT22;1722;51.316;12.370;2022-12-18T07:56:52;-4.50;90.30
3418;DHT22;1722;51.316;12.370;2022-12-18T07:59:19;-4.50;90.30
3418;DHT22;1722;51.316;12.370;2022-12-18T08:01:47;-4.60;90.20
3418;DHT22;1722;51.316;12.370;2022-12-18T08:04:14;-4.60;90.40
3418;DHT22;1722;51.316;12.370;2022-12-18T08:06:42;-4.60;90.40
3418;DHT22;1722;51.316;12.370;2022-12-18T08:09:10;-4.60;90.50
3418;DHT22;1722;51.316;12.370;2022-12-18T08:11:38;-4.60;90.50
3418;DHT22;1722;51.316;12.370;2022-12-18T08:14:06;-4.60;90.60
3418;DHT22;1722;51.316;12.370;2022-12-18T08:16:34;-4.60;90.90
3418;DHT22;1722;51.316;12.370;2022-12-18T08:19:01;-4.60;90.70
3418;DHT22;1722;51.316;12.370;2022-12-18T08:21:30;-4.60;90.70
3418;DHT22;1722;51.316;12.370;2022-12-18T08:24:00;-4.60;90.70
3418;DHT22;1722;51.316;12.370;2022-12-18T08:26:29;-4.70;90.70
3418;DHT22;1722;51.316;12.370;2022-12-18T08:28:59;-4.60;90.70
3418;DHT22;1722;51.316;12.370;2022-12-18T08:31:28;-4.60;90.60
3418;DHT22;1722;51.316;12.370;2022-12-18T08:33:56;-4.60;90.60
3418;DHT22;1722;51.316;12.370;2022-12-18T08:36:24;-4.60;90.60
3418;DHT22;1722;51.316;12.370;2022-12-18T08:38:52;-4.60;90.50
3418;DHT22;1722;51.316;12.370;2022-12-18T08:41:20;-4.60;90.50
3418;DHT22;1722;51.316;12.370;2022-12-18T08:43:48;-4.50;90.50
3418;DHT22;1722;51.316;12.370;2022-12-18T08:46:36;-4.50;90.50
3418;DHT22;1722;51.316;12.370;2022-12-18T08:49:04;-4.50;90.60
3418;DHT22;1722;51.316;12.370;2022-12-18T08:51:33;-4.50;90.50
3418;DHT22;1722;51.316;12.370;2022-12-18T08:54:01;-4.50;90.50
3418;DHT22;1722;51.316;12.370;2022-12-18T08:56:28;-4.50;90.60
3418;DHT22;1722;51.316;12.370;2022-12-18T08:58:57;-4.40;90.60
3418;DHT22;1722;51.316;12.370;2022-12-18T09:01:25;-4.40;90.90
3418;DHT22;1722;51.316;12.370;2022-12-18T09:03:54;-4.40;90.60
3418;DHT22;1722;51.316;12.370;2022-12-18T09:06:22;-4.40;90.60
3418;DHT22;1722;51.316;12.370;2022-12-18T09:08:50;-4.40;90.60
3418;DHT22;1722;51.316;12.370;2022-12-18T09:11:20;-4.40;90.60
3418;DHT22;1722;51.316;12.370;2022-12-18T09:13:48;-4.40;90.60
3418;DHT22;1722;51.316;12.370;2022-12-18T09:16:16;-4.40;91.00
3418;DHT22;1722;51.316;12.370;2022-12-18T09:18:43;-4.40;90.90
3418;DHT22;1722;51.316;12.370;2022-12-18T09:21:14;-4.30;90.90
3418;DHT22;1722;51.316;12.370;2022-12-18T09:23:42;-4.30;90.90
3418;DHT22;1722;51.316;12.370;2022-12-18T09:26:10;-4.30;90.80
3418;DHT22;1722;51.316;12.370;2022-12-18T09:28:37;-4.30;90.80
3418;DHT22;1722;51.316;12.370;2022-12-18T09:31:07;-4.30;90.80
3418;DHT22;1722;51.316;12.370;2022-12-18T09:33:35;-4.20;90.80
3418;DHT22;1722;51.316;12.370;2022-12-18T09:36:04;-4.20;91.30
3418;DHT22;1722;51.316;12.370;2022-12-18T09:38:34;-4.20;91.40
3418;DHT22;1722;51.316;12.370;2022-12-18T09:41:05;-4.20;91.00
3418;DHT22;1722;51.316;12.370;2022-12-18T09:43:43;-4.10;91.00
3418;DHT22;1722;51.316;12.370;2022-12-18T09:46:19;-4.20;91.50
3418;DHT22;1722;51.316;12.370;2022-12-18T09:48:50;-4.20;91.20
3418;DHT22;1722;51.316;12.370;2022-12-18T09:51:23;-4.10;91.10
3418;DHT22;1722;51.316;12.370;2022-12-18T09:53:57;-4.10;91.00
3418;DHT22;1722;51.316;12.370;2022-12-18T09:56:28;-4.10;91.00
3418;DHT22;1722;51.316;12.370;2022-12-18T09:59:01;-4.00;91.00
3418;DHT22;1722;51.316;12.370;2022-12-18T10:01:30;-4.00;91.30
3418;DHT22;1722;51.316;12.370;2022-12-18T10:03:57;-4.00;91.30
3418;DHT22;1722;51.316;12.370;2022-12-18T10:06:29;-3.90;91.40
3418;DHT22;1722;51.316;12.370;2022-12-18T10:09:07;-3.90;91.40
3418;DHT22;1722;51.316;12.370;2022-12-18T10:11:43;-3.90;91.20
3418;DHT22;1722;51.316;12.370;2022-12-18T10:14:16;-3.90;91.40
3418;DHT22;1722;51.316;12.370;2022-12-18T10:16:53;-3.90;91.10
3418;DHT22;1722;51.316;12.370;2022-12-18T10:19:34;-3.80;91.10
3418;DHT22;1722;51.316;12.370;2022-12-18T10:22:11;-3.80;91.00
3418;DHT22;1722;51.316;12.370;2022-12-18T10:24:46;-3.80;90.80
3418;DHT22;1722;51.316;12.370;2022-12-18T10:27:17;-3.80;91.30
3418;DHT22;1722;51.316;12.370;2022-12-18T10:29:45;-3.80;91.30
3418;DHT22;1722;51.316;12.370;2022-12-18T10:32:14;-3.90;91.40
3418;DHT22;1722;51.316;12.370;2022-12-18T10:34:47;-3.70;91.50
3418;DHT22;1722;51.316;12.370;2022-12-18T10:37:17;-3.70;91.00
3418;DHT22;1722;51.316;12.370;2022-12-18T10:39:47;-3.60;91.50
3418;DHT22;1722;51.316;12.370;2022-12-18T10:42:31;-3.60;90.90
3418;DHT22;1722;51.316;12.370;2022-12-18T10:45:02;-3.60;91.10
3418;DHT22;1722;51.316;12.370;2022-12-18T10:47:30;-3.50;91.40
3418;DHT22;1722;51.316;12.370;2022-12-18T10:49:58;-3.50;91.60
3418;DHT22;1722;51.316;12.370;2022-12-18T10:52:27;-3.40;91.10
3418;DHT22;1722;51.316;12.370;2022-12-18T10:54:58;-3.40;90.90
3418;DHT22;1722;51.316;12.370;2022-12-18T10:57:33;-3.40;90.90
3418;DHT22;1722;51.316;12.370;2022-12-18T11:00:24;-3.30;91.00
3418;DHT22;1722;51.316;12.370;2022-12-18T11:02:52;-3.20;90.80
3418;DHT22;1722;51.316;12.370;2022-12-18T11:05:28;-3.20;91.10
3418;DHT22;1722;51.316;12.370;2022-12-18T11:07:57;-3.20;90.90
3418;DHT22;1722;51.316;12.370;2022-12-18T11:10:31;-3.10;90.90
3418;DHT22;1722;51.316;12.370;2022-12-18T11:13:16;-3.10;90.80
3418;DHT22;1722;51.316;12.370;2022-12-18T11:15:45;-3.00;90.80
3418;DHT22;1722;51.316;12.370;2022-12-18T11:18:18;-2.90;91.30
3418;DHT22;1722;51.316;12.370;2022-12-18T11:20:51;-2.90;90.70
3418;DHT22;1722;51.316;12.370;2022-12-18T11:23:21;-2.80;90.50
3418;DHT22;1722;51.316;12.370;2022-12-18T11:25:54;-2.80;90.40
3418;DHT22;1722;51.316;12.370;2022-12-18T11:28:36;-2.80;90.30
3418;DHT22;1722;51.316;12.370;2022-12-18T11:31:24;-2.70;90.40
3418;DHT22;1722;51.316;12.370;2022-12-18T11:33:58;-2.60;90.60
3418;DHT22;1722;51.316;12.370;2022-12-18T11:36:29;-2.60;90.30
3418;DHT22;1722;51.316;12.370;2022-12-18T11:39:02;-2.50;90.10
3418;DHT22;1722;51.316;12.370;2022-12-18T11:41:37;-2.50;90.00
3418;DHT22;1722;51.316;12.370;2022-12-18T11:44:26;-2.50;90.00
3418;DHT22;1722;51.316;12.370;2022-12-18T11:46:59;-2.50;90.20
3418;DHT22;1722;51.316;12.370;2022-12-18T11:49:32;-2.40;89.70
3418;DHT22;1722;51.316;12.370;2022-12-18T11:52:04;-2.40;90.80
3418;DHT22;1722;51.316;12.370;2022-12-18T11:54:35;-2.30;90.30
3418;DHT22;1722;51.316;12.370;2022-12-18T11:57:11;-2.30;89.50
3418;DHT22;1722;51.316;12.370;2022-12-18T11:59:51;-2.20;89.60
3418;DHT22;1722;51.316;12.370;2022-12-18T12:02:37;-2.10;89.50
3418;DHT22;1722;51.316;12.370;2022-12-18T12:05:25;-2.10;89.40
3418;DHT22;1722;51.316;12.370;2022-12-18T12:08:03;-2.00;89.40
3418;DHT22;1722;51.316;12.370;2022-12-18T12:10:46;-2.00;89.30
3418;DHT22;1722;51.316;12.370;2022-12-18T12:13:25;-1.90;89.10
3418;DHT22;1722;51.316;12.370;2022-12-18T12:16:06;-1.90;89.10
3418;DHT22;1722;51.316;12.370;2022-12-18T12:18:48;-1.80;88.80
3418;DHT22;1722;51.316;12.370;2022-12-18T12:21:24;-1.70;88.80
3418;DHT22;1722;51.316;12.370;2022-12-18T12:24:00;-1.70;88.60
3418;DHT22;1722;51.316;12.370;2022-12-18T12:26:35;-1.70;88.70
3418;DHT22;1722;51.316;12.370;2022-12-18T12:29:24;-1.60;88.50
3418;DHT22;1722;51.316;12.370;2022-12-18T12:32:05;-1.60;88.60
3418;DHT22;1722;51.316;12.370;2022-12-18T12:34:38;-1.50;88.40
3418;DHT22;1722;51.316;12.370;2022-12-18T12:37:19;-1.40;88.40
3418;DHT22;1722;51.316;12.370;2022-12-18T12:39:51;-1.40;88.00
3418;DHT22;1722;51.316;12.370;2022-12-18T12:42:38;-1.30;87.90
3418;DHT22;1722;51.316;12.370;2022-12-18T12:45:29;-1.20;87.60
3418;DHT22;1722;51.316;12.370;2022-12-18T12:47:58;-1.20;87.60
3418;DHT22;1722;51.316;12.370;2022-12-18T12:50:26;-1.30;87.20
3418;DHT22;1722;51.316;12.370;2022-12-18T12:52:55;-1.30;87.10
3418;DHT22;1722;51.316;12.370;2022-12-18T12:55:26;-1.30;87.30
3418;DHT22;1722;51.316;12.370;2022-12-18T12:58:02;-1.20;87.20
3418;DHT22;1722;51.316;12.370;2022-12-18T13:00:39;-1.20;86.90
3418;DHT22;1722;51.316;12.370;2022-12-18T13:03:13;-1.20;87.00
3418;DHT22;1722;51.316;12.370;2022-12-18T13:05:47;-1.20;86.90
3418;DHT22;1722;51.316;12.370;2022-12-18T13:08:24;-1.10;87.20
3418;DHT22;1722;51.316;12.370;2022-12-18T13:10:53;-1.10;87.30
3418;DHT22;1722;51.316;12.370;2022-12-18T13:13:49;-1.00;87.20
3418;DHT22;1722;51.316;12.370;2022-12-18T13:16:20;-1.00;87.40
3418;DHT22;1722;51.316;12.370;2022-12-18T13:18:49;-0.90;87.10
3418;DHT22;1722;51.316;12.370;2022-12-18T13:21:21;-0.90;86.60
3418;DHT22;1722;51.316;12.370;2022-12-18T13:23:50;-0.90;86.60
3418;DHT22;1722;51.316;12.370;2022-12-18T13:26:32;-0.80;86.50
3418;DHT22;1722;51.316;12.370;2022-12-18T13:29:01;-0.80;86.70
3418;DHT22;1722;51.316;12.370;2022-12-18T13:32:01;-0.80;86.80
3418;DHT22;1722;51.316;12.370;2022-12-18T13:34:30;-0.80;86.30
3418;DHT22;1722;51.316;12.370;2022-12-18T13:43:27;-0.80;86.60
3418;DHT22;1722;51.316;12.370;2022-12-18T13:46:03;-0.80;85.90
3418;DHT22;1722;51.316;12.370;2022-12-18T13:48:34;-0.90;85.80
3418;DHT22;1722;51.316;12.370;2022-12-18T13:51:05;-0.90;85.90
3418;DHT22;1722;51.316;12.370;2022-12-18T13:53:36;-1.00;85.80
3418;DHT22;1722;51.316;12.370;2022-12-18T13:56:05;-1.00;85.90
3418;DHT22;1722;51.316;12.370;2022-12-18T13:58:33;-1.00;85.90
3418;DHT22;1722;51.316;12.370;2022-12-18T14:01:01;-1.00;86.00
3418;DHT22;1722;51.316;12.370;2022-12-18T14:03:30;-1.10;85.80
3418;DHT22;1722;51.316;12.370;2022-12-18T14:06:06;-1.10;86.00
3418;DHT22;1722;51.316;12.370;2022-12-18T14:08:39;-1.20;86.00
3418;DHT22;1722;51.316;12.370;2022-12-18T14:11:19;-1.10;86.30
3418;DHT22;1722;51.316;12.370;2022-12-18T14:13:47;-1.20;86.50
3418;DHT22;1722;51.316;12.370;2022-12-18T14:16:15;-1.20;86.50
3418;DHT22;1722;51.316;12.370;2022-12-18T14:18:45;-1.30;86.50
3418;DHT22;1722;51.316;12.370;2022-12-18T14:21:21;-1.20;86.50
3418;DHT22;1722;51.316;12.370;2022-12-18T14:24:05;-1.30;86.60
3418;DHT22;1722;51.316;12.370;2022-12-18T14:26:33;-1.30;86.80
3418;DHT22;1722;51.316;12.370;2022-12-18T14:29:19;-1.40;86.60
3418;DHT22;1722;51.316;12.370;2022-12-18T14:32:04;-1.40;86.70
3418;DHT22;1722;51.316;12.370;2022-12-18T14:34:32;-1.40;86.90
3418;DHT22;1722;51.316;12.370;2022-12-18T14:37:01;-1.40;87.60
3418;DHT22;1722;51.316;12.370;2022-12-18T14:39:29;-1.40;87.20
3418;DHT22;1722;51.316;12.370;2022-12-18T14:41:56;-1.40;87.30
3418;DHT22;1722;51.316;12.370;2022-12-18T14:44:24;-1.40;87.40
3418;DHT22;1722;51.316;12.370;2022-12-18T14:46:51;-1.50;87.40
3418;DHT22;1722;51.316;12.370;2022-12-18T14:49:23;-1.50;87.50
3418;DHT22;1722;51.316;12.370;2022-12-18T14:51:53;-1.50;87.50
3418;DHT22;1722;51.316;12.370;2022-12-18T14:54:24;-1.50;87.50
3418;DHT22;1722;51.316;12.370;2022-12-18T14:56:57;-1.60;87.50
3418;DHT22;1722;51.316;12.370;2022-12-18T14:59:27;-1.60;87.40
3418;DHT22;1722;51.316;12.370;2022-12-18T15:01:59;-1.60;87.60
3418;DHT22;1722;51.316;12.370;2022-12-18T15:04:29;-1.60;87.60
3418;DHT22;1722;51.316;12.370;2022-12-18T15:07:09;-1.60;87.70
3418;DHT22;1722;51.316;12.370;2022-12-18T15:09:41;-1.70;87.70
3418;DHT22;1722;51.316;12.370;2022-12-18T15:12:28;-1.70;87.60
3418;DHT22;1722;51.316;12.370;2022-12-18T15:15:00;-1.70;87.70
3418;DHT22;1722;51.316;12.370;2022-12-18T15:17:28;-1.70;87.70
3418;DHT22;1722;51.316;12.370;2022-12-18T15:20:00;-1.70;87.70
3418;DHT22;1722;51.316;12.370;2022-12-18T15:22:30;-1.70;87.80
3418;DHT22;1722;51.316;12.370;2022-12-18T15:24:59;-1.70;87.80
3418;DHT22;1722;51.316;12.370;2022-12-18T15:27:30;-1.70;87.80
3418;DHT22;1722;51.316;12.370;2022-12-18T15:30:19;-1.80;87.80
3418;DHT22;1722;51.316;12.370;2022-12-18T15:32:48;-1.80;87.90
3418;DHT22;1722;51.316;12.370;2022-12-18T15:35:20;-1.80;88.00
3418;DHT22;1722;51.316;12.370;2022-12-18T15:37:48;-1.80;88.20
3418;DHT22;1722;51.316;12.370;2022-12-18T15:40:19;-1.80;88.20
3418;DHT22;1722;51.316;12.370;2022-12-18T15:42:48;-1.80;88.80
3418;DHT22;1722;51.316;12.370;2022-12-18T15:45:33;-1.80;88.10
3418;DHT22;1722;51.316;12.370;2022-12-18T15:48:01;-1.80;88.10
3418;DHT22;1722;51.316;12.370;2022-12-18T15:50:28;-1.80;88.20
3418;DHT22;1722;51.316;12.370;2022-12-18T15:52:56;-1.90;88.10
3418;DHT22;1722;51.316;12.370;2022-12-18T15:55:24;-1.90;88.00
3418;DHT22;1722;51.316;12.370;2022-12-18T15:58:10;-1.90;88.00
3418;DHT22;1722;51.316;12.370;2022-12-18T16:00:39;-1.90;88.20
3418;DHT22;1722;51.316;12.370;2022-12-18T16:03:08;-1.90;88.10
3418;DHT22;1722;51.316;12.370;2022-12-18T16:05:36;-1.90;88.10
3418;DHT22;1722;51.316;12.370;2022-12-18T16:08:03;-1.90;88.10
3418;DHT22;1722;51.316;12.370;2022-12-18T16:10:32;-1.90;88.10
3418;DHT22;1722;51.316;12.370;2022-12-18T16:13:00;-2.00;87.90
3418;DHT22;1722;51.316;12.370;2022-12-18T16:15:27;-1.90;88.10